createdAt,value
2019-02-14T00:02:28.676Z,70.95
2019-02-14T00:05:15.925Z,68.05
2019-02-14T00:07:47.438Z,68.97
2019-02-14T00:10:26.357Z,67.40
2019-02-14T00:13:05.102Z,67.12
2019-02-14T00:15:43.582Z,64.45
2019-02-14T00:18:23.330Z,66.82
2019-02-14T00:21:01.931Z,66.12
2019-02-14T00:23:40.953Z,65.67
2019-02-14T00:26:19.949Z,63.30
2019-02-14T00:28:58.719Z,62.95
2019-02-14T00:31:37.964Z,61.13
2019-02-14T00:34:16.595Z,58.68
2019-02-14T00:36:55.053Z,59.93
2019-02-14T00:39:33.813Z,57.75
2019-02-14T00:42:12.133Z,57.67
2019-02-14T00:44:50.797Z,54.85
2019-02-14T00:47:29.800Z,53.42
2019-02-14T00:50:08.415Z,51.20
2019-02-14T00:52:46.930Z,48.45
2019-02-14T00:55:26.055Z,46.92
2019-02-14T01:00:44.394Z,46.08
2019-02-14T01:03:23.023Z,46.92
2019-02-14T01:06:01.663Z,47.27
2019-02-14T01:08:40.424Z,44.98
2019-02-14T01:11:19.610Z,44.25
2019-02-14T01:13:59.173Z,41.50
2019-02-14T01:16:37.806Z,41.48
2019-02-14T01:19:17.418Z,39.78
2019-02-14T01:21:57.217Z,40.33
2019-02-14T01:24:35.810Z,37.70
2019-02-14T01:27:14.931Z,37.98
2019-02-14T01:29:53.698Z,39.20
2019-02-14T01:32:32.449Z,38.23
2019-02-14T01:35:11.784Z,38.48
2019-02-14T01:37:50.465Z,38.55
2019-02-14T01:40:29.720Z,37.93
2019-02-14T01:43:08.304Z,37.80
2019-02-14T01:45:47.857Z,35.30
2019-02-14T01:48:26.713Z,33.35
2019-02-14T01:51:05.305Z,33.28
2019-02-14T01:53:44.184Z,31.33
2019-02-14T01:56:22.809Z,31.82
2019-02-14T01:59:02.132Z,31.37
2019-02-14T02:01:41.032Z,30.27
2019-02-14T02:04:19.718Z,28.62
2019-02-14T02:06:58.682Z,28.25
2019-02-14T02:09:37.600Z,26.15
2019-02-14T02:12:16.458Z,26.20
2019-02-14T02:14:55.424Z,27.85
2019-02-14T02:17:33.992Z,27.93
2019-02-14T02:20:14.369Z,27.37
2019-02-14T02:22:53.094Z,28.27
2019-02-14T02:25:32.197Z,28.52
2019-02-14T02:28:10.832Z,28.47
2019-02-14T02:30:49.533Z,28.10
2019-02-14T02:33:29.115Z,27.42
2019-02-14T02:36:07.757Z,28.40
2019-02-14T02:38:46.453Z,27.05
2019-02-14T02:41:25.562Z,27.42
2019-02-14T02:44:04.278Z,26.97
2019-02-14T02:46:43.174Z,27.62
2019-02-14T02:49:22.220Z,28.07
2019-02-14T02:52:00.810Z,26.33
2019-02-14T02:54:39.701Z,27.20
2019-02-14T02:57:18.742Z,25.90
2019-02-14T02:59:59.176Z,23.85
2019-02-14T03:02:37.779Z,24.37
2019-02-14T03:05:17.903Z,24.40
2019-02-14T03:07:56.688Z,24.40
2019-02-14T03:10:35.630Z,25.27
2019-02-14T03:13:14.298Z,25.52
2019-02-14T03:15:52.932Z,24.57
2019-02-14T03:18:31.594Z,24.27
2019-02-14T03:21:10.542Z,21.55
2019-02-14T03:23:49.229Z,21.05
2019-02-14T03:26:28.538Z,20.20
2019-02-14T03:29:07.551Z,19.27
2019-02-14T03:31:46.547Z,18.00
2019-02-14T03:34:25.467Z,17.52
2019-02-14T03:37:04.228Z,17.95
2019-02-14T03:39:43.031Z,18.23
2019-02-14T03:42:21.544Z,16.30
2019-02-14T03:45:01.225Z,15.60
2019-02-14T03:47:39.994Z,16.70
2019-02-14T03:50:19.336Z,16.20
2019-02-14T03:52:57.993Z,16.77
2019-02-14T03:55:36.554Z,16.70
2019-02-14T03:58:15.743Z,16.00
2019-02-14T04:00:54.902Z,15.68
2019-02-14T04:03:34.090Z,16.15
2019-02-14T04:06:12.853Z,16.60
2019-02-14T04:08:51.392Z,15.48
2019-02-14T04:11:30.560Z,15.38
2019-02-14T04:14:10.323Z,14.75
2019-02-14T04:16:49.041Z,15.43
2019-02-14T04:19:28.013Z,14.05
2019-02-14T04:22:07.218Z,15.45
2019-02-14T04:24:46.116Z,14.20
2019-02-14T04:27:24.780Z,14.58
2019-02-14T04:30:03.661Z,15.80
2019-02-14T04:32:42.939Z,15.15
2019-02-14T04:35:21.854Z,15.63
2019-02-14T04:38:01.029Z,17.10
2019-02-14T04:40:39.958Z,15.18
2019-02-14T04:43:18.552Z,15.90
2019-02-14T04:45:57.275Z,16.52
2019-02-14T04:48:36.410Z,16.87
2019-02-14T04:51:14.961Z,17.35
2019-02-14T04:53:53.397Z,16.75
2019-02-14T04:56:32.018Z,16.90
2019-02-14T04:59:10.845Z,15.75
2019-02-14T05:01:49.629Z,16.00
2019-02-14T05:04:28.525Z,17.20
2019-02-14T05:07:07.257Z,17.10
2019-02-14T05:09:45.820Z,16.55
2019-02-14T05:12:26.161Z,15.90
2019-02-14T05:15:04.208Z,16.57
2019-02-14T05:17:44.135Z,16.97
2019-02-14T05:20:23.062Z,16.50
2019-02-14T05:23:02.215Z,16.15
2019-02-14T05:25:40.839Z,16.90
2019-02-14T05:28:19.607Z,16.15
2019-02-14T05:30:58.137Z,17.10
2019-02-14T05:33:37.303Z,18.00
2019-02-14T05:36:15.867Z,16.42
2019-02-14T05:38:55.003Z,17.40
2019-02-14T05:41:33.605Z,18.35
2019-02-14T05:44:12.439Z,18.20
2019-02-14T05:46:50.764Z,18.15
2019-02-14T05:49:29.683Z,18.12
2019-02-14T05:52:08.248Z,17.60
2019-02-14T05:54:46.795Z,17.37
2019-02-14T05:57:27.432Z,18.50
2019-02-14T06:00:06.009Z,19.05
2019-02-14T06:02:46.178Z,18.65
2019-02-14T06:05:25.310Z,19.23
2019-02-14T06:08:04.121Z,18.23
2019-02-14T06:10:42.843Z,18.73
2019-02-14T06:13:21.782Z,18.02
2019-02-14T06:16:00.599Z,17.80
2019-02-14T06:18:39.412Z,18.48
2019-02-14T06:21:17.959Z,19.75
2019-02-14T06:23:57.243Z,18.73
2019-02-14T06:26:37.039Z,19.05
2019-02-14T06:29:15.772Z,23.55
2019-02-14T06:31:54.969Z,20.75
2019-02-14T06:34:33.684Z,19.15
2019-02-14T06:37:12.328Z,19.05
2019-02-14T06:39:51.416Z,18.27
2019-02-14T06:42:30.115Z,18.27
2019-02-14T06:45:09.159Z,17.80
2019-02-14T06:47:47.746Z,18.25
2019-02-14T06:50:34.453Z,18.20
2019-02-14T06:53:06.871Z,18.25
2019-02-14T06:55:45.551Z,20.90
2019-02-14T06:58:24.220Z,21.05
2019-02-14T07:01:04.406Z,19.98
2019-02-14T07:03:43.389Z,19.65
2019-02-14T07:06:23.138Z,19.40
2019-02-14T07:09:02.185Z,19.57
2019-02-14T07:11:41.142Z,19.67
2019-02-14T07:14:19.967Z,19.32
2019-02-14T07:16:58.659Z,20.30
2019-02-14T07:19:37.717Z,19.77
2019-02-14T07:22:16.369Z,19.52
2019-02-14T07:24:55.506Z,20.32
2019-02-14T07:27:34.199Z,19.02
2019-02-14T07:30:15.348Z,19.95
2019-02-14T07:32:53.805Z,20.10
2019-02-14T07:35:33.179Z,19.12
2019-02-14T07:38:12.724Z,20.45
2019-02-14T07:40:51.987Z,19.45
2019-02-14T07:43:30.778Z,20.68
2019-02-14T07:46:09.650Z,20.37
2019-02-14T07:48:47.921Z,20.25
2019-02-14T07:51:26.709Z,20.23
2019-02-14T07:54:05.131Z,20.52
2019-02-14T07:56:43.907Z,20.08
2019-02-14T07:59:22.982Z,23.92
2019-02-14T08:04:56.633Z,22.07
2019-02-14T08:07:36.160Z,21.55
2019-02-14T08:10:16.639Z,20.88
2019-02-14T08:12:56.216Z,21.33
2019-02-14T08:15:34.869Z,21.02
2019-02-14T08:18:13.728Z,20.20
2019-02-14T08:20:52.926Z,20.37
2019-02-14T08:23:31.817Z,20.72
2019-02-14T08:26:11.074Z,19.62
2019-02-14T08:28:49.935Z,20.25
2019-02-14T08:31:29.568Z,19.40
2019-02-14T08:34:08.464Z,21.73
2019-02-14T08:36:47.401Z,21.12
2019-02-14T08:39:27.342Z,20.62
2019-02-14T08:42:05.975Z,20.65
2019-02-14T08:44:44.563Z,21.60
2019-02-14T08:47:23.373Z,19.90
2019-02-14T08:50:02.641Z,21.48
2019-02-14T08:52:41.437Z,21.37
2019-02-14T08:55:20.608Z,21.05
2019-02-14T08:57:59.260Z,28.12
2019-02-14T09:00:38.160Z,21.85
2019-02-14T09:03:17.815Z,20.27
2019-02-14T09:05:56.475Z,21.50
2019-02-14T09:08:35.493Z,22.27
2019-02-14T09:11:14.993Z,23.07
2019-02-14T09:13:53.572Z,21.60
2019-02-14T09:16:32.858Z,20.50
2019-02-14T09:19:11.530Z,20.57
2019-02-14T09:21:50.487Z,20.40
2019-02-14T09:24:29.464Z,20.17
2019-02-14T09:27:08.383Z,21.45
2019-02-14T09:29:47.364Z,22.52
2019-02-14T09:32:28.750Z,21.15
2019-02-14T09:35:07.874Z,21.33
2019-02-14T09:37:46.597Z,21.73
2019-02-14T09:40:25.983Z,20.95
2019-02-14T09:43:05.175Z,21.57
2019-02-14T09:45:43.962Z,21.35
2019-02-14T09:48:22.961Z,22.02
2019-02-14T09:51:02.088Z,22.25
2019-02-14T09:53:40.755Z,23.10
2019-02-14T09:56:19.588Z,23.55
2019-02-14T09:58:58.244Z,23.45
2019-02-14T10:01:37.122Z,24.02
2019-02-14T10:04:15.674Z,22.62
2019-02-14T10:06:54.528Z,22.15
2019-02-14T10:09:33.091Z,22.50
2019-02-14T10:12:12.070Z,21.45
2019-02-14T10:14:50.404Z,22.00
2019-02-14T10:17:29.555Z,22.67
2019-02-14T10:20:08.511Z,21.65
2019-02-14T10:22:47.544Z,22.22
2019-02-14T10:25:26.293Z,22.73
2019-02-14T10:28:05.269Z,23.57
2019-02-14T10:30:43.908Z,24.47
2019-02-14T10:33:22.756Z,22.22
2019-02-14T10:36:01.553Z,23.12
2019-02-14T10:38:40.378Z,23.05
2019-02-14T10:41:20.720Z,24.05
2019-02-14T10:43:59.671Z,23.77
2019-02-14T10:46:38.184Z,24.92
2019-02-14T10:49:17.372Z,25.40
2019-02-14T10:51:56.268Z,24.55
2019-02-14T10:54:35.239Z,24.43
2019-02-14T10:57:14.585Z,24.20
2019-02-14T10:59:54.258Z,24.87
2019-02-14T11:02:33.278Z,25.45
2019-02-14T11:05:12.143Z,26.35
2019-02-14T11:07:51.242Z,26.80
2019-02-14T11:10:30.247Z,29.70
2019-02-14T11:13:09.224Z,30.17
2019-02-14T11:15:47.970Z,29.87
2019-02-14T11:18:26.978Z,30.20
2019-02-14T11:21:05.472Z,30.65
2019-02-14T11:23:44.379Z,31.07
2019-02-14T11:26:23.128Z,30.27
2019-02-14T11:29:01.988Z,30.70
2019-02-14T11:31:40.647Z,31.12
2019-02-14T11:34:19.884Z,28.07
2019-02-14T11:36:57.958Z,29.12
2019-02-14T11:39:37.185Z,29.55
2019-02-14T11:42:15.783Z,28.75
2019-02-14T11:44:54.621Z,29.87
2019-02-14T11:47:32.984Z,30.35
2019-02-14T11:50:12.366Z,29.18
2019-02-14T11:52:51.084Z,30.02
2019-02-14T11:55:30.185Z,30.62
2019-02-14T11:58:08.853Z,30.32
2019-02-14T12:00:47.556Z,31.55
2019-02-14T12:03:26.204Z,33.20
2019-02-14T12:06:27.717Z,33.00
2019-02-14T12:09:08.058Z,33.08
2019-02-14T12:11:46.988Z,34.43
2019-02-14T12:14:25.827Z,32.73
2019-02-14T12:17:04.424Z,33.92
2019-02-14T12:19:43.266Z,34.67
2019-02-14T12:22:21.970Z,34.43
2019-02-14T12:25:03.658Z,34.15
2019-02-14T12:27:42.234Z,35.65
2019-02-14T12:30:21.600Z,33.78
2019-02-14T12:33:00.119Z,35.43
2019-02-14T12:35:39.221Z,36.35
2019-02-14T12:38:17.731Z,38.42
2019-02-14T12:40:56.641Z,37.25
2019-02-14T12:43:35.055Z,36.55
2019-02-14T12:46:13.779Z,38.42
2019-02-14T12:48:52.301Z,39.00
2019-02-14T12:51:31.170Z,39.85
2019-02-14T12:54:09.561Z,40.38
2019-02-14T12:56:48.901Z,40.35
2019-02-14T12:59:27.704Z,39.27
2019-02-14T13:02:06.633Z,38.83
2019-02-14T13:04:45.626Z,39.63
2019-02-14T13:07:24.325Z,40.38
2019-02-14T13:10:03.325Z,39.03
2019-02-14T13:12:42.099Z,40.33
2019-02-14T13:15:22.951Z,38.50
2019-02-14T13:18:01.893Z,39.88
2019-02-14T13:20:40.943Z,39.23
2019-02-14T13:23:19.704Z,40.10
2019-02-14T13:25:58.782Z,39.23
2019-02-14T13:28:37.477Z,39.30
2019-02-14T13:31:16.308Z,39.58
2019-02-14T13:33:54.457Z,39.50
2019-02-14T13:36:33.591Z,39.25
2019-02-14T13:39:12.913Z,39.95
2019-02-14T13:41:51.992Z,39.60
2019-02-14T13:44:30.751Z,41.18
2019-02-14T13:47:09.240Z,41.88
2019-02-14T13:49:48.074Z,39.85
2019-02-14T13:52:26.681Z,42.10
2019-02-14T13:55:05.195Z,39.25
2019-02-14T13:57:44.130Z,40.17
2019-02-14T14:00:25.422Z,40.75
2019-02-14T14:03:04.221Z,39.45
2019-02-14T14:05:43.009Z,40.35
2019-02-14T14:08:21.961Z,41.90
2019-02-14T14:11:00.722Z,42.17
2019-02-14T14:13:39.356Z,42.38
2019-02-14T14:16:17.916Z,42.00
2019-02-14T14:18:56.837Z,42.83
2019-02-14T14:21:35.537Z,41.98
2019-02-14T14:24:13.989Z,42.17
2019-02-14T14:26:53.502Z,42.08
2019-02-14T14:29:32.293Z,42.27
2019-02-14T14:32:10.948Z,41.77
2019-02-14T14:34:49.617Z,41.18
2019-02-14T14:37:28.370Z,44.18
2019-02-14T14:40:06.915Z,42.78
2019-02-14T14:43:07.281Z,45.58
2019-02-14T14:46:03.947Z,43.65
2019-02-14T14:48:45.111Z,45.10
2019-02-14T14:51:23.527Z,44.23
2019-02-14T14:54:02.454Z,45.35
2019-02-14T14:56:40.962Z,47.30
2019-02-14T14:59:19.823Z,46.23
2019-02-14T15:01:58.475Z,47.78
2019-02-14T15:04:37.261Z,48.95
2019-02-14T15:07:16.397Z,48.65
2019-02-14T15:09:57.539Z,47.78
2019-02-14T15:12:35.488Z,48.80
2019-02-14T15:15:14.745Z,49.63
2019-02-14T15:17:53.525Z,50.60
2019-02-14T15:20:32.647Z,49.18
2019-02-14T15:23:11.303Z,52.73
2019-02-14T15:25:50.481Z,52.13
2019-02-14T15:28:29.809Z,51.02
2019-02-14T15:31:09.068Z,48.52
2019-02-14T15:33:47.968Z,49.03
2019-02-14T15:36:28.277Z,48.60
2019-02-14T15:39:08.328Z,50.23
2019-02-14T15:41:47.423Z,52.08
2019-02-14T15:44:26.469Z,55.33
2019-02-14T15:47:05.586Z,57.73
2019-02-14T15:49:44.774Z,55.05
2019-02-14T15:52:23.896Z,56.18
2019-02-14T15:55:02.514Z,57.45
2019-02-14T15:57:42.891Z,53.45
2019-02-14T16:00:21.531Z,53.58
2019-02-14T16:03:00.616Z,54.30
2019-02-14T16:05:40.331Z,53.55
2019-02-14T16:08:21.804Z,54.88
2019-02-14T16:10:59.262Z,56.28
2019-02-14T16:13:38.533Z,54.27
2019-02-14T16:16:17.426Z,55.60
2019-02-14T16:18:56.973Z,55.20
2019-02-14T16:21:36.555Z,56.23
2019-02-14T16:24:18.546Z,57.35
2019-02-14T16:26:59.249Z,58.73
2019-02-14T16:29:40.048Z,61.13
2019-02-14T16:32:19.014Z,59.10
2019-02-14T16:34:58.831Z,57.73
2019-02-14T16:37:37.692Z,58.58
2019-02-14T16:40:17.176Z,60.10
2019-02-14T16:42:58.647Z,58.55
2019-02-14T16:45:37.586Z,58.87
2019-02-14T16:48:16.618Z,58.75
2019-02-14T16:50:55.685Z,60.10
2019-02-14T16:53:34.786Z,59.93
2019-02-14T16:56:14.218Z,59.93
2019-02-14T17:01:49.031Z,57.38
2019-02-14T17:04:28.914Z,59.63
2019-02-14T17:07:07.937Z,61.13
2019-02-14T17:09:47.578Z,61.65
2019-02-14T17:12:26.333Z,60.92
2019-02-14T17:15:05.480Z,148.00
2019-02-14T17:17:45.118Z,131.70
2019-02-14T17:20:23.743Z,159.35
2019-02-14T17:23:02.531Z,157.47
2019-02-14T17:25:41.646Z,110.17
2019-02-14T17:28:20.420Z,104.12
2019-02-14T17:31:02.597Z,76.57
2019-02-14T17:33:41.509Z,72.85
2019-02-14T17:36:20.321Z,71.75
2019-02-14T17:38:59.482Z,95.65
2019-02-14T17:41:38.225Z,78.40
2019-02-14T17:44:16.895Z,77.25
2019-02-14T17:46:55.456Z,70.85
2019-02-14T17:49:34.120Z,79.03
2019-02-14T17:52:13.012Z,72.87
2019-02-14T17:54:51.754Z,81.50
2019-02-14T17:57:30.840Z,76.10
2019-02-14T18:00:10.501Z,73.17
2019-02-14T18:02:49.363Z,71.47
2019-02-14T18:05:28.203Z,69.87
2019-02-14T18:08:07.091Z,74.12
2019-02-14T18:10:54.555Z,73.30
2019-02-14T18:13:25.973Z,73.62
2019-02-14T18:16:04.937Z,74.12
2019-02-14T18:18:44.204Z,71.33
2019-02-14T18:21:23.022Z,71.82
2019-02-14T18:24:02.010Z,73.57
2019-02-14T18:26:40.428Z,73.72
2019-02-14T18:29:19.211Z,69.87
2019-02-14T18:31:58.677Z,68.90
2019-02-14T18:34:37.088Z,68.57
2019-02-14T18:37:15.974Z,98.80
2019-02-14T18:39:54.551Z,79.27
2019-02-14T18:42:33.691Z,130.65
2019-02-14T18:45:14.046Z,277.15
2019-02-14T18:47:53.265Z,239.82
2019-02-14T18:50:32.036Z,148.28
2019-02-14T18:53:11.045Z,113.03
2019-02-14T18:55:49.637Z,81.35
2019-02-14T18:58:28.643Z,80.07
2019-02-14T19:01:07.364Z,70.70
2019-02-14T19:03:45.927Z,67.45
2019-02-14T19:06:24.881Z,69.82
2019-02-14T19:09:03.784Z,69.60
2019-02-14T19:11:45.774Z,77.12
2019-02-14T19:14:25.847Z,89.30
2019-02-14T19:17:05.332Z,87.30
2019-02-14T19:19:44.221Z,81.08
2019-02-14T19:22:24.531Z,76.47
2019-02-14T19:25:03.216Z,75.97
2019-02-14T19:27:42.071Z,75.92
2019-02-14T19:30:21.102Z,72.60
2019-02-14T19:33:01.620Z,74.32
2019-02-14T19:35:40.500Z,72.92
2019-02-14T19:38:19.660Z,71.40
2019-02-14T19:40:58.179Z,66.97
2019-02-14T19:43:38.190Z,68.20
2019-02-14T19:46:17.186Z,69.80
2019-02-14T19:48:55.737Z,68.95
2019-02-14T19:51:34.404Z,67.15
2019-02-14T19:54:12.982Z,68.50
2019-02-14T19:56:51.769Z,71.80
2019-02-14T19:59:30.550Z,70.15
2019-02-14T20:02:09.262Z,73.90
2019-02-14T20:04:48.355Z,70.72
2019-02-14T20:07:27.181Z,72.10
2019-02-14T20:10:05.881Z,72.97
2019-02-14T20:12:44.501Z,74.30
2019-02-14T20:15:24.209Z,74.35
2019-02-14T20:18:02.967Z,73.05
2019-02-14T20:20:42.044Z,73.22
2019-02-14T20:23:20.609Z,76.50
2019-02-14T20:25:59.876Z,77.37
2019-02-14T20:28:38.754Z,77.37
2019-02-14T20:31:18.248Z,80.57
2019-02-14T20:33:57.772Z,77.12
2019-02-14T20:36:36.715Z,76.57
2019-02-14T20:39:15.545Z,74.82
2019-02-14T20:41:54.351Z,72.08
2019-02-14T20:44:33.103Z,75.22
2019-02-14T20:47:12.282Z,75.45
2019-02-14T20:49:51.230Z,86.42
2019-02-14T20:52:30.354Z,84.47
2019-02-14T20:55:08.943Z,86.60
2019-02-14T20:57:47.827Z,84.00
2019-02-14T21:00:34.453Z,85.47
2019-02-14T21:03:13.293Z,84.07
2019-02-14T21:05:52.264Z,81.42
2019-02-14T21:08:31.186Z,84.05
2019-02-14T21:11:10.171Z,84.10
2019-02-14T21:13:48.248Z,83.60
2019-02-14T21:16:27.287Z,80.20
2019-02-14T21:19:06.142Z,82.12
2019-02-14T21:21:44.986Z,85.67
2019-02-14T21:24:24.122Z,84.13
2019-02-14T21:27:02.833Z,81.50
2019-02-14T21:29:41.681Z,83.17
2019-02-14T21:32:20.397Z,81.30
2019-02-14T21:34:59.557Z,82.00
2019-02-14T21:37:38.891Z,77.97
2019-02-14T21:40:18.416Z,78.47
2019-02-14T21:42:58.060Z,77.45
2019-02-14T21:45:37.007Z,78.75
2019-02-14T21:48:15.731Z,75.87
2019-02-14T21:50:54.718Z,77.60
2019-02-14T21:53:33.970Z,72.17
2019-02-14T21:56:12.673Z,74.58
2019-02-14T21:58:51.617Z,76.35
2019-02-14T22:01:30.861Z,75.03
2019-02-14T22:04:09.413Z,72.47
2019-02-14T22:06:49.619Z,72.92
2019-02-14T22:09:28.510Z,72.75
2019-02-14T22:12:07.213Z,75.15
2019-02-14T22:14:46.622Z,79.42
2019-02-14T22:17:25.176Z,82.57
2019-02-14T22:20:04.081Z,89.35
2019-02-14T22:22:42.842Z,81.08
2019-02-14T22:25:21.327Z,80.87
2019-02-14T22:27:59.814Z,78.90
2019-02-14T22:30:39.567Z,81.57
2019-02-14T22:33:18.060Z,79.35
2019-02-14T22:35:58.083Z,82.72
2019-02-14T22:38:36.903Z,86.28
2019-02-14T22:41:15.998Z,83.47
2019-02-14T22:43:54.643Z,83.15
2019-02-14T22:46:33.576Z,80.62
2019-02-14T22:49:12.202Z,79.15
2019-02-14T22:51:51.329Z,80.50
2019-02-14T22:54:29.907Z,81.72
2019-02-14T22:57:08.884Z,79.17
2019-02-14T22:59:47.784Z,82.72
2019-02-14T23:02:26.902Z,84.45
2019-02-14T23:05:05.538Z,81.42
2019-02-14T23:07:44.103Z,85.15
2019-02-14T23:10:22.826Z,89.90
2019-02-14T23:13:02.118Z,89.62
2019-02-14T23:15:41.027Z,90.03
